Time;durP1;ratioP1;P1;durP2;ratioP2;P2;SDS_P1;SDS_P2;PMS_P1;PMS_P2;Temp;Humidity;BMP_temperature;BMP_pressure;BME280_temperature;BME280_humidity;BME280_pressure;Samples;Min_cycle;Max_cycle;Signal;HPM_P1;HPM_P2
2022/01/30 00:02:18;;;;;;;37.95;5.65;;;;;;;7.41;100.00;102766.16;5092296;28;20047;-71
2022/01/30 00:04:44;;;;;;;33.70;5.55;;;;;;;7.66;100.00;102758.94;5077855;28;20167;-71
2022/01/30 00:07:10;;;;;;;29.00;5.28;;;;;;;7.44;100.00;102758.38;5082379;28;20309;-71
2022/01/30 00:09:36;;;;;;;32.95;6.03;;;;;;;7.61;100.00;102760.63;5066578;28;20032;-71
2022/01/30 00:12:04;;;;;;;34.28;5.93;;;;;;;7.57;100.00;102751.22;5086066;28;20504;-72
2022/01/30 00:14:35;;;;;;;33.22;5.80;;;;;;;7.52;100.00;102751.84;5076710;28;20119;-71
2022/01/30 00:17:08;;;;;;;32.88;5.82;;;;;;;7.51;100.00;102753.75;5065859;28;20224;-71
2022/01/30 00:19:44;;;;;;;23.67;4.82;;;;;;;7.47;100.00;102763.41;5062721;28;20131;-72
2022/01/30 00:22:34;;;;;;;34.28;5.63;;;;;;;7.50;100.00;102765.72;5066637;28;20077;-71
2022/01/30 00:25:09;;;;;;;27.55;5.80;;;;;;;7.46;100.00;102760.88;5080493;28;20114;-71
2022/01/30 00:27:54;;;;;;;28.55;5.88;;;;;;;7.30;100.00;102775.84;5050682;28;20195;-71
2022/01/30 00:30:19;;;;;;;33.33;5.32;;;;;;;7.29;100.00;102779.63;5080032;28;20377;-69
2022/01/30 00:32:45;;;;;;;25.08;5.38;;;;;;;7.45;100.00;102781.06;5082548;28;20279;-71
2022/01/30 00:35:12;;;;;;;29.80;4.93;;;;;;;7.50;100.00;102773.91;5100478;28;20031;-73
2022/01/30 00:37:41;;;;;;;26.27;5.40;;;;;;;7.43;100.00;102789.47;5103566;28;20102;-72
2022/01/30 00:40:08;;;;;;;28.00;5.70;;;;;;;7.34;100.00;102791.56;5102060;28;20459;-71
2022/01/30 00:42:34;;;;;;;31.70;6.40;;;;;;;7.18;100.00;102792.84;5102038;28;20422;-71
2022/01/30 00:44:59;;;;;;;33.85;6.68;;;;;;;7.20;100.00;102798.09;5083594;28;20506;-70
2022/01/30 00:47:25;;;;;;;27.70;6.22;;;;;;;7.22;100.00;102793.28;5085659;28;20030;-70
2022/01/30 00:49:51;;;;;;;34.45;6.03;;;;;;;7.26;100.00;102788.22;5060127;28;20098;-71
2022/01/30 00:52:17;;;;;;;28.25;5.60;;;;;;;7.35;100.00;102776.88;5092958;28;20036;-71
2022/01/30 00:54:45;;;;;;;28.50;5.03;;;;;;;7.31;100.00;102772.91;5080695;28;20465;-71
2022/01/30 00:57:11;;;;;;;34.72;6.00;;;;;;;7.17;100.00;102776.69;5083071;28;20386;-72
2022/01/30 00:59:36;;;;;;;26.92;5.82;;;;;;;7.16;100.00;102797.66;5077280;28;20458;-70
2022/01/30 01:02:02;;;;;;;31.73;5.13;;;;;;;7.25;100.00;102783.84;5081420;28;20106;-70
2022/01/30 01:04:28;;;;;;;26.58;4.75;;;;;;;7.27;100.00;102793.47;5083975;28;20047;-71
2022/01/30 01:06:53;;;;;;;33.50;6.80;;;;;;;7.09;100.00;102790.56;5066394;28;20028;-71
2022/01/30 01:09:22;;;;;;;31.42;5.80;;;;;;;7.21;100.00;102782.56;5045187;28;20063;-71
2022/01/30 01:12:58;;;;;;;32.72;5.85;;;;;;;7.19;100.00;102790.97;5084711;28;20084;-71
2022/01/30 01:23:32;;;;;;;25.52;5.63;;;;;;;7.18;100.00;102794.72;5057615;28;20038;-71
2022/01/30 01:25:59;;;;;;;22.10;4.75;;;;;;;7.27;100.00;102793.47;5095062;28;20055;-71
2022/01/30 01:28:29;;;;;;;37.80;6.30;;;;;;;7.34;100.00;102796.19;5100875;28;20130;-71
2022/01/30 01:30:55;;;;;;;29.67;5.07;;;;;;;7.09;100.00;102796.84;5096550;28;20066;-71
2022/01/30 01:33:26;;;;;;;27.48;5.50;;;;;;;7.38;100.00;102797.44;5083391;28;20048;-71
2022/01/30 01:35:51;;;;;;;21.17;4.35;;;;;;;7.26;100.00;102799.97;5088317;28;20712;-71
2022/01/30 01:38:17;;;;;;;25.80;4.70;;;;;;;7.12;100.00;102817.41;5081640;28;20500;-70
2022/01/30 01:40:51;;;;;;;22.98;4.45;;;;;;;7.25;100.00;102806.50;5082720;28;20079;-72
2022/01/30 01:43:18;;;;;;;34.30;5.72;;;;;;;7.13;100.00;102799.97;5089638;28;20052;-71
2022/01/30 01:45:46;;;;;;;30.73;5.20;;;;;;;7.20;100.00;102814.47;5097503;28;20024;-70
2022/01/30 01:48:14;;;;;;;29.00;4.95;;;;;;;7.48;100.00;102806.03;5076257;28;20457;-71
2022/01/30 01:50:44;;;;;;;28.45;5.28;;;;;;;7.09;100.00;102794.13;5086264;28;20485;-73
2022/01/30 01:53:14;;;;;;;33.55;5.28;;;;;;;7.36;100.00;102794.06;5088528;28;20090;-72
2022/01/30 01:55:43;;;;;;;26.42;5.20;;;;;;;7.29;100.00;102796.81;5097711;28;20610;-71
2022/01/30 01:58:09;;;;;;;22.02;4.63;;;;;;;7.20;100.00;102825.38;5074709;28;20078;-70
2022/01/30 02:00:35;;;;;;;29.40;5.05;;;;;;;7.14;100.00;102815.31;5106042;27;20464;-72
2022/01/30 02:03:01;;;;;;;20.58;4.30;;;;;;;6.54;100.00;102816.13;5106726;27;20378;-69
2022/01/30 02:05:34;;;;;;;23.77;4.43;;;;;;;6.56;100.00;102821.34;5101395;28;20039;-71
2022/01/30 02:08:47;;;;;;;;;;;;;;;6.50;100.00;102825.72;5088332;28;20024;-71
2022/01/30 02:11:07;;;;;;;25.00;3.65;;;;;;;6.55;100.00;102820.50;5078608;28;20002;-71
2022/01/30 02:14:45;;;;;;;24.20;4.70;;;;;;;6.49;100.00;102839.56;5071870;28;20150;-71
2022/01/30 02:24:54;;;;;;;29.90;4.90;;;;;;;6.80;100.00;102839.00;5096275;28;20054;-72
2022/01/30 02:27:23;;;;;;;25.85;5.00;;;;;;;6.63;100.00;102835.84;5103923;28;20103;-71
2022/01/30 02:29:50;;;;;;;24.85;4.53;;;;;;;6.65;100.00;102832.91;5106878;27;20435;-71
2022/01/30 02:32:16;;;;;;;29.48;4.78;;;;;;;6.47;100.00;102823.41;5088616;28;20031;-71
2022/01/30 02:34:42;;;;;;;25.45;4.13;;;;;;;6.49;100.00;102825.94;5078723;28;20375;-73
2022/01/30 02:37:07;;;;;;;24.08;4.18;;;;;;;6.52;100.00;102817.34;5084572;28;20031;-71
2022/01/30 02:39:33;;;;;;;24.95;3.63;;;;;;;6.70;100.00;102824.94;5069668;28;20032;-70
2022/01/30 02:41:59;;;;;;;21.77;4.10;;;;;;;6.60;100.00;102818.00;5085006;28;20052;-71
2022/01/30 02:46:59;;;;;;;25.80;4.57;;;;;;;6.92;100.00;102818.25;5084462;28;20036;-70
2022/01/30 02:49:30;;;;;;;17.42;3.60;;;;;;;6.99;100.00;102820.97;5091987;28;20108;-72
2022/01/30 02:52:01;;;;;;;30.02;4.35;;;;;;;7.13;100.00;102819.94;5083552;28;20032;-71
2022/01/30 02:54:28;;;;;;;22.48;4.75;;;;;;;6.98;100.00;102822.03;5086201;28;20040;-71
2022/01/30 02:56:54;;;;;;;27.70;4.93;;;;;;;7.14;100.00;102829.78;5100936;28;20424;-71
2022/01/30 02:59:19;;;;;;;26.35;5.57;;;;;;;7.03;100.00;102824.94;5103482;28;20034;-71
2022/01/30 03:01:45;;;;;;;18.95;4.75;;;;;;;7.03;100.00;102819.50;5104479;28;20385;-71
2022/01/30 03:04:11;;;;;;;27.98;4.72;;;;;;;7.00;100.00;102828.09;5103845;28;20771;-71
2022/01/30 03:06:37;;;;;;;30.13;6.00;;;;;;;7.11;100.00;102819.28;5103573;28;20085;-71
2022/01/30 03:09:05;;;;;;;31.95;4.95;;;;;;;6.91;100.00;102826.66;5097582;27;20082;-71
2022/01/30 03:11:31;;;;;;;25.48;5.32;;;;;;;6.75;100.00;102827.88;5088976;28;21523;-70
2022/01/30 03:13:56;;;;;;;23.95;4.53;;;;;;;7.12;100.00;102831.06;5081580;28;20032;-70
2022/01/30 03:16:22;;;;;;;27.00;3.88;;;;;;;6.89;100.00;102831.47;5083446;28;20036;-70
2022/01/30 03:18:48;;;;;;;14.15;3.40;;;;;;;6.83;100.00;102840.47;5084680;28;20024;-71
2022/01/30 03:21:13;;;;;;;15.65;3.53;;;;;;;6.90;100.00;102847.59;5080525;28;20341;-71
2022/01/30 03:23:39;;;;;;;19.50;4.72;;;;;;;6.60;100.00;102861.59;5085377;28;20031;-71
2022/01/30 03:26:06;;;;;;;21.25;4.53;;;;;;;6.69;100.00;102865.00;5081298;28;20059;-71
2022/01/30 03:28:32;;;;;;;18.65;3.00;;;;;;;6.65;100.00;102857.44;5084321;28;20509;-70
2022/01/30 03:31:02;;;;;;;18.35;3.60;;;;;;;6.70;100.00;102863.09;5094468;28;20448;-72
2022/01/30 03:33:28;;;;;;;21.58;4.10;;;;;;;6.68;100.00;102859.75;5088235;28;20030;-70
2022/01/30 03:35:55;;;;;;;16.88;3.45;;;;;;;6.74;100.00;102857.03;5087557;28;20024;-71
2022/01/30 03:38:22;;;;;;;20.30;3.55;;;;;;;6.68;100.00;102860.56;5084492;28;20110;-71
2022/01/30 03:40:48;;;;;;;16.27;3.65;;;;;;;6.69;100.00;102862.28;5067421;28;20035;-72
2022/01/30 03:43:14;;;;;;;24.55;3.50;;;;;;;6.67;100.00;102858.88;5102104;28;20142;-71
2022/01/30 03:45:40;;;;;;;24.38;4.68;;;;;;;6.58;100.00;102851.97;5099918;28;20035;-69
2022/01/30 03:48:05;;;;;;;20.73;3.90;;;;;;;6.74;100.00;102858.91;5093612;28;20398;-70
2022/01/30 03:50:33;;;;;;;21.38;3.90;;;;;;;6.72;100.00;102845.50;5082206;28;20048;-69
2022/01/30 03:52:59;;;;;;;22.90;4.22;;;;;;;6.81;100.00;102857.03;5081069;28;20185;-70
2022/01/30 03:55:25;;;;;;;18.73;3.72;;;;;;;6.66;100.00;102870.84;5083504;28;20534;-71
2022/01/30 03:57:51;;;;;;;19.20;3.30;;;;;;;6.68;100.00;102863.31;5086589;28;20606;-71
2022/01/30 04:00:18;;;;;;;17.23;3.38;;;;;;;6.79;100.00;102870.06;5093444;28;20023;-70
2022/01/30 04:02:43;;;;;;;16.63;4.25;;;;;;;6.71;100.00;102865.63;5102381;28;20032;-71
2022/01/30 04:05:08;;;;;;;21.75;3.83;;;;;;;6.93;100.00;102868.16;5083309;28;20028;-71
2022/01/30 04:07:34;;;;;;;20.13;3.42;;;;;;;6.93;100.00;102869.00;5081075;28;20036;-70
2022/01/30 04:10:01;;;;;;;26.00;4.10;;;;;;;6.66;100.00;102867.28;5088498;28;20042;-71
2022/01/30 04:12:27;;;;;;;19.38;3.50;;;;;;;6.77;100.00;102870.25;5085046;28;20039;-72
2022/01/30 04:14:54;;;;;;;18.05;4.05;;;;;;;6.78;100.00;102873.81;5080013;28;20475;-71
2022/01/30 04:17:20;;;;;;;17.83;4.20;;;;;;;6.62;100.00;102878.63;5061118;28;20036;-69
2022/01/30 04:19:46;;;;;;;22.38;4.45;;;;;;;6.73;100.00;102873.59;5083743;28;20094;-70
2022/01/30 04:22:12;;;;;;;23.88;4.32;;;;;;;6.66;100.00;102870.00;5079073;28;20032;-72
2022/01/30 04:24:38;;;;;;;26.30;4.88;;;;;;;6.69;100.00;102870.44;5083493;28;20042;-72
2022/01/30 04:27:04;;;;;;;23.23;4.07;;;;;;;6.75;100.00;102869.59;5093971;28;20024;-71
2022/01/30 04:29:30;;;;;;;25.85;4.53;;;;;;;6.52;100.00;102877.31;5099875;28;20084;-71
2022/01/30 04:31:57;;;;;;;25.15;5.05;;;;;;;6.70;100.00;102874.00;5100457;28;20127;-72
2022/01/30 04:34:23;;;;;;;21.65;3.65;;;;;;;6.79;100.00;102872.78;5101749;28;20020;-72
2022/01/30 04:37:03;;;;;;;21.50;3.75;;;;;;;6.79;100.00;102872.78;5082729;28;20051;-72
2022/01/30 04:52:07;;;;;;;18.02;3.92;;;;;;;6.66;100.00;102873.59;5087113;28;20035;-70
2022/01/30 04:58:34;;;;;;;25.20;4.50;;;;;;;6.50;100.00;102882.97;5102584;28;20563;-72
2022/01/30 05:01:12;;;;;;;23.63;4.18;;;;;;;6.72;100.00;102905.47;5098576;28;20386;-72
2022/01/30 05:03:54;;;;;;;20.95;4.03;;;;;;;6.72;100.00;102893.72;5087501;28;20100;-70
2022/01/30 05:06:31;;;;;;;23.02;4.90;;;;;;;6.57;100.00;102900.16;5097914;28;20031;-71
2022/01/30 05:08:56;;;;;;;21.13;4.45;;;;;;;6.44;100.00;102905.56;5093434;28;20509;-70
2022/01/30 05:11:22;;;;;;;28.05;4.40;;;;;;;6.49;100.00;102888.63;5079355;28;20031;-70
2022/01/30 05:13:49;;;;;;;21.13;4.15;;;;;;;6.54;100.00;102886.09;5081518;28;20487;-72
2022/01/30 05:16:16;;;;;;;21.83;4.28;;;;;;;6.65;100.00;102898.31;5078669;28;20111;-70
2022/01/30 05:18:42;;;;;;;20.50;5.22;;;;;;;6.57;100.00;102900.16;5096165;28;20027;-73
2022/01/30 05:21:08;;;;;;;20.70;4.32;;;;;;;6.61;100.00;102909.63;5097052;28;20038;-70
2022/01/30 05:23:33;;;;;;;23.42;3.85;;;;;;;6.63;100.00;102912.97;5099860;28;20035;-71
2022/01/30 05:26:05;;;;;;;22.77;4.65;;;;;;;6.55;100.00;102915.06;5082504;28;20028;-69
2022/01/30 05:28:31;;;;;;;26.75;4.93;;;;;;;6.67;100.00;102926.19;5081267;28;20043;-72
2022/01/30 05:30:57;;;;;;;25.42;4.88;;;;;;;6.54;100.00;102919.69;5084489;28;20114;-69
2022/01/30 05:33:23;;;;;;;23.80;4.60;;;;;;;6.50;100.00;102931.19;5081471;28;20574;-71
2022/01/30 05:35:48;;;;;;;29.70;6.22;;;;;;;6.65;100.00;102925.56;5093308;28;20280;-71
2022/01/30 05:38:14;;;;;;;22.48;4.65;;;;;;;6.67;100.00;102935.22;5100983;28;20038;-72
2022/01/30 05:40:40;;;;;;;27.45;4.60;;;;;;;6.61;100.00;102934.16;5103678;28;20946;-70
2022/01/30 05:43:06;;;;;;;30.40;5.15;;;;;;;6.49;100.00;102940.38;5101814;28;20065;-71
2022/01/30 05:45:37;;;;;;;25.77;5.30;;;;;;;6.54;100.00;102944.19;5097308;28;20039;-70
2022/01/30 05:48:09;;;;;;;24.38;4.65;;;;;;;6.73;100.00;102955.38;5102177;28;20019;-70
2022/01/30 05:50:35;;;;;;;22.90;4.38;;;;;;;6.56;100.00;102960.31;5099466;28;20043;-69
2022/01/30 05:53:02;;;;;;;21.05;4.47;;;;;;;6.63;100.00;102962.03;5093927;28;20063;-71
2022/01/30 05:55:27;;;;;;;21.95;4.53;;;;;;;6.61;100.00;102964.13;5044792;28;20028;-71
2022/01/30 05:57:53;;;;;;;23.75;5.20;;;;;;;6.47;100.00;102967.00;5083889;28;20039;-71
2022/01/30 06:00:18;;;;;;;27.02;5.07;;;;;;;6.47;100.00;102973.28;5077003;28;20454;-72
2022/01/30 06:02:45;;;;;;;34.67;5.93;;;;;;;6.54;100.00;102974.19;5080731;28;20058;-69
2022/01/30 06:05:14;;;;;;;29.42;4.72;;;;;;;6.64;100.00;102990.16;5079495;28;20036;-72
2022/01/30 06:07:48;;;;;;;30.58;5.85;;;;;;;6.49;100.00;102975.81;5061931;28;20695;-70
2022/01/30 06:10:13;;;;;;;28.85;5.57;;;;;;;6.44;100.00;102987.31;5061004;28;20688;-72
2022/01/30 06:12:39;;;;;;;26.05;4.70;;;;;;;6.50;100.00;102982.97;5082339;28;20035;-72
2022/01/30 06:15:06;;;;;;;36.83;5.22;;;;;;;6.44;100.00;102979.16;5090249;28;20110;-70
2022/01/30 06:17:32;;;;;;;27.75;5.50;;;;;;;6.50;100.00;102978.34;5082511;28;20023;-71
2022/01/30 06:19:59;;;;;;;29.23;5.40;;;;;;;6.46;100.00;102989.84;5082528;28;20313;-73
2022/01/30 06:22:24;;;;;;;31.30;5.45;;;;;;;6.53;100.00;102993.47;5061927;28;20073;-71
2022/01/30 06:24:50;;;;;;;33.92;5.72;;;;;;;6.49;100.00;102998.44;5102039;28;20446;-71
2022/01/30 06:27:16;;;;;;;31.67;5.32;;;;;;;6.55;100.00;102992.19;5066691;28;20216;-71
2022/01/30 06:29:41;;;;;;;36.63;5.22;;;;;;;6.47;100.00;102999.72;5100984;28;20093;-71
2022/01/30 06:32:08;;;;;;;26.08;4.32;;;;;;;6.41;100.00;102999.47;5085672;28;20098;-71
2022/01/30 06:34:33;;;;;;;27.42;5.95;;;;;;;6.34;100.00;103008.66;5085768;28;20027;-72
2022/01/30 06:36:59;;;;;;;30.50;5.78;;;;;;;6.44;100.00;103006.41;5103032;28;20113;-72
2022/01/30 06:39:24;;;;;;;32.63;6.22;;;;;;;6.35;100.00;103019.34;5089287;28;20045;-73
2022/01/30 06:41:50;;;;;;;40.33;5.68;;;;;;;6.33;100.00;103009.69;5067020;28;20024;-71
2022/01/30 06:44:16;;;;;;;24.50;4.85;;;;;;;6.28;100.00;103012.16;5080447;28;20555;-72
2022/01/30 06:46:41;;;;;;;32.20;5.32;;;;;;;6.28;100.00;103012.16;5062453;28;20123;-72
2022/01/30 06:49:08;;;;;;;30.65;5.97;;;;;;;6.40;100.00;103007.84;5084067;28;20024;-71
2022/01/30 06:51:34;;;;;;;25.67;5.07;;;;;;;6.39;100.00;102996.09;5066123;28;20074;-72
2022/01/30 06:53:59;;;;;;;30.52;5.95;;;;;;;6.53;100.00;102998.91;5082907;28;20535;-73
2022/01/30 06:56:24;;;;;;;27.10;5.22;;;;;;;6.33;100.00;102996.91;5079836;28;20039;-72
2022/01/30 06:58:55;;;;;;;24.90;4.47;;;;;;;6.45;100.00;102997.19;5089463;28;20532;-71
2022/01/30 07:01:21;;;;;;;26.27;5.60;;;;;;;6.26;100.00;103001.47;5085855;28;20036;-72
2022/01/30 07:03:46;;;;;;;28.02;4.63;;;;;;;6.56;100.00;102995.75;5106602;28;20080;-72
2022/01/30 07:06:12;;;;;;;26.75;4.35;;;;;;;6.53;100.00;103016.09;5100735;28;20028;-71
2022/01/30 07:08:38;;;;;;;30.63;5.85;;;;;;;6.49;100.00;103019.41;5066522;28;20122;-71
2022/01/30 07:11:03;;;;;;;31.17;5.47;;;;;;;6.63;100.00;103029.34;5084441;28;20127;-70
2022/01/30 07:13:30;;;;;;;34.55;5.18;;;;;;;6.59;100.00;103022.59;5082670;28;20502;-71
2022/01/30 07:15:56;;;;;;;26.95;5.32;;;;;;;6.33;100.00;103035.06;5047443;28;20025;-71
2022/01/30 07:18:22;;;;;;;27.92;6.05;;;;;;;6.41;100.00;103034.91;5083440;28;20028;-71
2022/01/30 07:20:47;;;;;;;34.20;6.80;;;;;;;6.39;100.00;103036.13;5047307;28;20032;-71
2022/01/30 07:23:13;;;;;;;29.88;5.68;;;;;;;6.29;100.00;103044.66;5101784;28;20062;-70
2022/01/30 07:25:40;;;;;;;33.17;5.30;;;;;;;6.39;100.00;103049.75;5087215;28;20077;-70
2022/01/30 07:28:05;;;;;;;26.08;4.60;;;;;;;6.66;100.00;103060.81;5105295;28;20020;-70
2022/01/30 07:30:30;;;;;;;27.85;4.70;;;;;;;6.81;100.00;103066.97;5095123;28;20047;-71
2022/01/30 07:32:56;;;;;;;26.48;4.78;;;;;;;6.83;100.00;103075.78;5104016;28;20081;-71
2022/01/30 07:35:23;;;;;;;35.15;5.15;;;;;;;6.61;100.00;103066.88;5105293;28;20027;-72
2022/01/30 07:37:49;;;;;;;28.50;5.55;;;;;;;6.69;100.00;103065.84;5084967;28;20031;-71
2022/01/30 07:40:16;;;;;;;25.35;5.65;;;;;;;6.77;100.00;103055.66;5084161;28;20551;-72
2022/01/30 07:42:41;;;;;;;38.40;5.15;;;;;;;6.74;100.00;103056.03;5103831;28;20055;-70
2022/01/30 07:45:07;;;;;;;25.70;4.80;;;;;;;6.87;100.00;103060.72;5091882;28;20420;-71
2022/01/30 07:47:33;;;;;;;30.95;5.43;;;;;;;6.84;100.00;103068.44;5086127;28;20032;-71
2022/01/30 07:50:00;;;;;;;33.78;5.65;;;;;;;6.79;100.00;103058.16;5099122;28;20439;-71
2022/01/30 07:52:27;;;;;;;33.13;5.60;;;;;;;6.93;100.00;103056.34;5074644;28;20491;-70
2022/01/30 07:54:52;;;;;;;37.05;5.97;;;;;;;6.61;100.00;103056.81;5045289;28;20033;-72
2022/01/30 07:57:19;;;;;;;33.25;6.65;;;;;;;6.58;100.00;103054.47;5079489;28;20487;-71
2022/01/30 07:59:45;;;;;;;27.80;5.22;;;;;;;6.70;100.00;103043.00;5089818;28;20031;-73
2022/01/30 08:02:10;;;;;;;32.95;5.63;;;;;;;6.68;100.00;103047.84;5081494;28;20036;-72
2022/01/30 08:04:36;;;;;;;36.00;6.28;;;;;;;6.49;100.00;103041.22;5078570;28;20143;-72
2022/01/30 08:07:02;;;;;;;34.63;6.75;;;;;;;6.52;100.00;103058.00;5079581;28;20023;-70
2022/01/30 08:09:28;;;;;;;33.65;6.18;;;;;;;6.67;100.00;103057.88;5079357;28;20032;-70
2022/01/30 08:11:54;;;;;;;29.92;6.18;;;;;;;6.77;100.00;103072.00;5080556;28;20396;-71
2022/01/30 08:14:21;;;;;;;33.85;6.15;;;;;;;6.66;100.00;103067.13;5079235;28;20027;-70
2022/01/30 08:16:47;;;;;;;37.42;5.95;;;;;;;6.91;100.00;103069.34;5062453;28;20136;-70
2022/01/30 08:19:12;;;;;;;31.33;5.85;;;;;;;6.68;100.00;103065.03;5083096;28;20063;-71
2022/01/30 08:21:37;;;;;;;27.92;4.53;;;;;;;6.78;100.00;103061.94;5076077;28;20133;-71
2022/01/30 08:24:03;;;;;;;31.60;7.00;;;;;;;6.79;100.00;103075.38;5078990;28;20188;-71
2022/01/30 08:26:28;;;;;;;26.42;5.07;;;;;;;6.62;100.00;103080.31;5089701;28;20031;-71
2022/01/30 08:28:54;;;;;;;23.40;5.05;;;;;;;6.60;100.00;103067.91;5078622;28;20339;-71
2022/01/30 08:31:23;;;;;;;33.03;5.78;;;;;;;6.84;100.00;103080.22;5080655;28;20032;-70
2022/01/30 08:33:48;;;;;;;33.42;5.82;;;;;;;6.68;100.00;103081.38;5084987;28;20418;-72
2022/01/30 08:36:15;;;;;;;36.25;5.75;;;;;;;6.70;100.00;103078.47;5078931;28;20146;-71
2022/01/30 08:38:41;;;;;;;30.38;5.40;;;;;;;6.53;100.00;103078.78;5041233;28;20372;-71
2022/01/30 08:41:06;;;;;;;33.75;5.70;;;;;;;6.86;100.00;103083.56;5096128;28;20070;-73
2022/01/30 08:43:32;;;;;;;30.95;5.47;;;;;;;6.92;100.00;103090.09;5099702;28;20051;-72
2022/01/30 08:45:59;;;;;;;32.33;5.72;;;;;;;6.87;100.00;103087.13;5099307;28;20036;-72
2022/01/30 08:48:25;;;;;;;36.25;6.82;;;;;;;6.73;100.00;103080.78;5103586;28;20027;-72
2022/01/30 08:50:51;;;;;;;30.77;5.68;;;;;;;6.85;100.00;103079.16;5083012;28;20512;-72
2022/01/30 08:53:17;;;;;;;28.83;5.32;;;;;;;6.94;100.00;103082.56;5083517;28;20083;-72
2022/01/30 08:55:43;;;;;;;27.55;5.32;;;;;;;6.89;100.00;103085.06;5086955;28;20516;-72
2022/01/30 08:58:09;;;;;;;25.90;5.82;;;;;;;6.70;100.00;103082.00;5102255;28;20073;-72
2022/01/30 09:00:41;;;;;;;32.40;5.05;;;;;;;6.93;100.00;103075.41;5081282;28;20545;-72
2022/01/30 09:03:06;;;;;;;29.02;5.88;;;;;;;6.72;100.00;103071.78;5093027;28;20031;-72
2022/01/30 09:05:33;;;;;;;30.08;5.43;;;;;;;6.82;100.00;103079.56;5088643;28;20028;-73
2022/01/30 09:07:59;;;;;;;24.45;4.72;;;;;;;6.96;100.00;103097.66;5079489;28;20065;-73
2022/01/30 09:10:25;;;;;;;27.08;5.35;;;;;;;6.80;100.00;103104.31;5082876;28;20032;-73
2022/01/30 09:12:51;;;;;;;27.08;5.88;;;;;;;6.98;100.00;103092.88;5080652;28;20542;-73
2022/01/30 09:15:17;;;;;;;28.35;6.07;;;;;;;6.81;100.00;103102.44;5082311;28;20127;-73
2022/01/30 09:17:44;;;;;;;28.42;4.50;;;;;;;6.98;100.00;103103.78;5079107;28;20102;-73
2022/01/30 09:20:10;;;;;;;28.67;5.63;;;;;;;6.88;100.00;103105.19;5084362;28;20076;-71
2022/01/30 09:22:36;;;;;;;27.00;4.47;;;;;;;6.82;100.00;103109.53;5080122;28;20449;-73
2022/01/30 09:25:03;;;;;;;33.45;5.30;;;;;;;7.08;100.00;103121.63;5082865;28;20043;-73
2022/01/30 09:27:28;;;;;;;33.35;5.30;;;;;;;7.05;100.00;103127.50;5081688;28;20058;-73
2022/01/30 09:29:55;;;;;;;30.10;5.95;;;;;;;7.07;100.00;103125.44;5083404;28;20471;-72
2022/01/30 09:32:22;;;;;;;32.28;5.20;;;;;;;7.20;100.00;103130.09;5083086;28;20065;-72
2022/01/30 09:34:48;;;;;;;33.33;5.88;;;;;;;7.41;100.00;103118.19;5085266;28;20527;-71
2022/01/30 09:37:13;;;;;;;36.17;6.18;;;;;;;7.33;100.00;103133.72;5099463;28;20019;-71
2022/01/30 09:39:39;;;;;;;27.27;5.63;;;;;;;7.33;100.00;103136.44;5099237;28;20492;-72
2022/01/30 09:42:06;;;;;;;36.70;5.50;;;;;;;7.50;100.00;103130.63;5094356;28;20559;-72
2022/01/30 09:44:36;;;;;;;28.23;5.72;;;;;;;7.46;100.00;103129.34;5102498;28;20388;-70
2022/01/30 09:47:02;;;;;;;30.08;5.15;;;;;;;7.27;100.00;103134.53;5093542;28;20051;-71
2022/01/30 09:49:29;;;;;;;31.40;5.60;;;;;;;7.24;100.00;103132.22;5080833;28;20037;-71
2022/01/30 09:51:56;;;;;;;34.17;5.75;;;;;;;7.34;100.00;103140.00;5079773;28;20335;-72
2022/01/30 09:54:23;;;;;;;35.38;5.72;;;;;;;7.33;100.00;103138.34;5078948;28;20530;-72
2022/01/30 09:56:49;;;;;;;24.90;5.50;;;;;;;7.58;100.00;103135.06;5080338;28;20462;-72
2022/01/30 09:59:15;;;;;;;29.80;5.07;;;;;;;7.70;100.00;103123.31;5079508;28;20050;-72
2022/01/30 10:01:41;;;;;;;34.63;6.28;;;;;;;7.59;100.00;103132.13;5076148;28;20040;-72
2022/01/30 10:04:06;;;;;;;26.48;5.28;;;;;;;7.28;100.00;103128.03;5084291;28;20086;-73
2022/01/30 10:06:57;;;;;;;26.80;5.40;;;;;;;7.09;100.00;103134.25;5066292;28;20046;-72
2022/01/30 10:09:31;;;;;;;32.95;6.03;;;;;;;7.61;100.00;103138.22;5082785;28;20525;-73
2022/01/30 10:12:19;;;;;;;33.63;5.72;;;;;;;7.42;100.00;103139.00;5084227;28;20208;-72
2022/01/30 10:15:02;;;;;;;25.83;5.15;;;;;;;7.39;100.00;103147.59;5099021;28;20372;-73
2022/01/30 10:17:59;;;;;;;;;;;;;;;7.31;100.00;103134.97;5083993;28;20054;-72
2022/01/30 10:20:27;;;;;;;32.67;5.75;;;;;;;7.47;100.00;103142.78;5055460;28;20402;-73
2022/01/30 10:22:58;;;;;;;30.83;5.88;;;;;;;7.88;100.00;103150.03;5065538;28;20031;-72
2022/01/30 10:25:35;;;;;;;32.30;5.05;;;;;;;7.71;100.00;103144.13;5107526;28;20423;-72
2022/01/30 10:28:15;;;;;;;28.00;5.03;;;;;;;7.69;100.00;103143.50;5105149;28;20036;-73
2022/01/30 10:30:44;;;;;;;30.85;5.95;;;;;;;7.59;100.00;103148.53;5104255;28;20035;-74
2022/01/30 10:33:12;;;;;;;33.55;5.20;;;;;;;7.39;100.00;103145.69;5104047;28;20110;-73
2022/01/30 10:35:56;;;;;;;35.05;6.03;;;;;;;7.50;100.00;103141.53;5105498;28;20020;-73
2022/01/30 10:38:25;;;;;;;29.73;5.45;;;;;;;7.87;100.00;103150.22;5103414;28;20092;-72
2022/01/30 10:41:10;;;;;;;26.67;5.57;;;;;;;8.03;100.00;103147.09;5105734;28;20032;-73
2022/01/30 10:43:55;;;;;;;26.35;5.95;;;;;;;7.56;100.00;103146.19;5105244;28;20023;-74
2022/01/30 10:46:31;;;;;;;25.92;5.15;;;;;;;8.31;100.00;103150.69;5105267;28;20055;-72
2022/01/30 10:48:59;;;;;;;33.85;5.22;;;;;;;7.84;100.00;103148.78;5097889;28;20027;-72
2022/01/30 10:51:30;;;;;;;28.00;6.07;;;;;;;7.61;100.00;103151.00;5105735;28;20056;-73
2022/01/30 10:53:58;;;;;;;24.50;6.03;;;;;;;7.87;100.00;103153.81;5084940;28;20118;-73
2022/01/30 10:56:27;;;;;;;33.65;6.68;;;;;;;7.62;100.00;103153.53;5106783;28;20033;-72
2022/01/30 10:59:03;;;;;;;32.58;5.70;;;;;;;7.72;100.00;103155.88;5103237;28;20383;-73
2022/01/30 11:01:31;;;;;;;32.08;5.45;;;;;;;8.17;100.00;103152.59;5104806;28;20100;-73
2022/01/30 11:04:00;;;;;;;27.35;5.68;;;;;;;8.50;100.00;103151.78;5101722;28;20027;-73
2022/01/30 11:06:27;;;;;;;37.33;6.80;;;;;;;8.63;100.00;103157.25;5071373;28;20028;-73
2022/01/30 11:08:54;;;;;;;27.80;5.05;;;;;;;8.02;100.00;103161.84;5100312;28;20607;-73
2022/01/30 11:11:57;;;;;;;35.35;6.72;;;;;;;7.85;100.00;103166.00;5104612;28;20066;-71
2022/01/30 11:17:02;;;;;;;28.60;5.72;;;;;;;7.29;100.00;103170.63;5101884;28;20311;-72
2022/01/30 11:19:30;;;;;;;27.42;5.43;;;;;;;7.69;100.00;103176.25;5083882;28;20027;-71
2022/01/30 11:22:08;;;;;;;29.33;6.03;;;;;;;7.83;100.00;103174.38;5065925;28;20393;-72
2022/01/30 11:24:44;;;;;;;31.38;6.18;;;;;;;7.79;100.00;103169.53;5083889;28;20063;-72
2022/01/30 11:27:10;;;;;;;38.38;6.00;;;;;;;7.42;100.00;103167.13;5084928;28;20024;-73
2022/01/30 11:29:39;;;;;;;25.73;5.07;;;;;;;7.75;100.00;103162.81;5082985;28;21153;-73
2022/01/30 11:32:07;;;;;;;32.58;5.68;;;;;;;7.67;100.00;103163.84;5070600;28;20492;-73
2022/01/30 11:34:37;;;;;;;36.38;5.90;;;;;;;7.90;100.00;103164.34;5103036;28;20069;-73
2022/01/30 11:37:05;;;;;;;33.30;6.13;;;;;;;7.63;100.00;103157.97;5080248;28;20023;-72
2022/01/30 11:39:32;;;;;;;32.55;6.38;;;;;;;8.07;100.00;103166.69;5103858;28;20109;-72
2022/01/30 11:42:12;;;;;;;25.17;5.25;;;;;;;8.21;100.00;103153.84;5085386;28;20031;-71
2022/01/30 11:44:41;;;;;;;38.90;6.40;;;;;;;7.73;100.00;103152.09;5101778;28;20086;-71
2022/01/30 11:47:07;;;;;;;34.42;5.97;;;;;;;8.00;100.00;103146.69;5082197;28;20322;-72
2022/01/30 11:49:45;;;;;;;26.80;4.93;;;;;;;8.28;100.00;103144.63;5084966;28;20411;-71
2022/01/30 11:52:12;;;;;;;31.98;5.68;;;;;;;7.99;100.00;103147.75;5084855;28;20560;-72
2022/01/30 11:54:41;;;;;;;29.52;5.88;;;;;;;8.04;100.00;103145.22;5102741;28;20270;-72
2022/01/30 11:57:19;;;;;;;39.60;5.72;;;;;;;7.27;100.00;103141.88;5102913;28;20053;-74
2022/01/30 11:59:46;;;;;;;30.13;6.45;;;;;;;7.15;100.00;103131.56;5103299;28;20039;-73
2022/01/30 12:02:28;;;;;;;34.90;5.47;;;;;;;7.55;100.00;103137.13;5095254;28;20379;-72